sensor_id;sensor_type;location;lat;lon;timestamp;P1;durP1;ratioP1;P2;durP2;ratioP2
7729;SDS011;3908;52.310;7.230;2023-03-12T00:00:50;8.87;;;4.90;;
7729;SDS011;3908;52.310;7.230;2023-03-12T00:03:37;8.80;;;4.67;;
7729;SDS011;3908;52.310;7.230;2023-03-12T00:06:26;6.37;;;4.50;;
7729;SDS011;3908;52.310;7.230;2023-03-12T00:09:13;6.43;;;4.73;;
7729;SDS011;3908;52.310;7.230;2023-03-12T00:11:59;8.53;;;5.07;;
7729;SDS011;3908;52.310;7.230;2023-03-12T00:14:46;6.53;;;4.47;;
7729;SDS011;3908;52.310;7.230;2023-03-12T00:17:33;7.13;;;4.70;;
7729;SDS011;3908;52.310;7.230;2023-03-12T00:20:20;11.10;;;4.87;;
7729;SDS011;3908;52.310;7.230;2023-03-12T00:23:09;7.60;;;5.03;;
7729;SDS011;3908;52.310;7.230;2023-03-12T00:25:58;8.87;;;5.43;;
7729;SDS011;3908;52.310;7.230;2023-03-12T00:28:46;7.87;;;5.13;;
7729;SDS011;3908;52.310;7.230;2023-03-12T00:31:32;8.60;;;5.47;;
7729;SDS011;3908;52.310;7.230;2023-03-12T00:34:19;6.67;;;5.17;;
7729;SDS011;3908;52.310;7.230;2023-03-12T00:37:06;9.77;;;5.00;;
7729;SDS011;3908;52.310;7.230;2023-03-12T00:39:55;8.10;;;5.00;;
7729;SDS011;3908;52.310;7.230;2023-03-12T00:42:41;8.93;;;5.77;;
7729;SDS011;3908;52.310;7.230;2023-03-12T00:45:28;9.57;;;5.37;;
7729;SDS011;3908;52.310;7.230;2023-03-12T00:48:15;9.10;;;5.30;;
7729;SDS011;3908;52.310;7.230;2023-03-12T00:51:02;9.90;;;5.93;;
7729;SDS011;3908;52.310;7.230;2023-03-12T00:53:49;8.13;;;5.63;;
7729;SDS011;3908;52.310;7.230;2023-03-12T00:56:37;8.67;;;5.33;;
7729;SDS011;3908;52.310;7.230;2023-03-12T00:59:24;7.27;;;6.03;;
7729;SDS011;3908;52.310;7.230;2023-03-12T01:02:11;8.57;;;5.77;;
7729;SDS011;3908;52.310;7.230;2023-03-12T01:04:58;9.50;;;5.53;;
7729;SDS011;3908;52.310;7.230;2023-03-12T01:07:44;7.60;;;5.40;;
7729;SDS011;3908;52.310;7.230;2023-03-12T01:10:31;7.47;;;4.80;;
7729;SDS011;3908;52.310;7.230;2023-03-12T01:13:19;9.20;;;5.23;;
7729;SDS011;3908;52.310;7.230;2023-03-12T01:16:06;7.63;;;5.67;;
7729;SDS011;3908;52.310;7.230;2023-03-12T01:18:53;9.03;;;6.10;;
7729;SDS011;3908;52.310;7.230;2023-03-12T01:21:40;9.23;;;5.80;;
7729;SDS011;3908;52.310;7.230;2023-03-12T01:24:27;9.93;;;5.80;;
7729;SDS011;3908;52.310;7.230;2023-03-12T01:27:13;10.13;;;5.93;;
7729;SDS011;3908;52.310;7.230;2023-03-12T01:30:02;11.23;;;5.97;;
7729;SDS011;3908;52.310;7.230;2023-03-12T01:32:50;11.17;;;6.90;;
7729;SDS011;3908;52.310;7.230;2023-03-12T01:35:37;8.20;;;5.43;;
7729;SDS011;3908;52.310;7.230;2023-03-12T01:38:24;9.87;;;6.10;;
7729;SDS011;3908;52.310;7.230;2023-03-12T01:41:11;11.57;;;6.10;;
7729;SDS011;3908;52.310;7.230;2023-03-12T01:43:58;7.13;;;5.73;;
7729;SDS011;3908;52.310;7.230;2023-03-12T01:46:48;12.33;;;6.17;;
7729;SDS011;3908;52.310;7.230;2023-03-12T01:49:35;13.20;;;6.60;;
7729;SDS011;3908;52.310;7.230;2023-03-12T01:52:23;9.83;;;5.60;;
7729;SDS011;3908;52.310;7.230;2023-03-12T01:55:12;10.37;;;6.03;;
7729;SDS011;3908;52.310;7.230;2023-03-12T01:58:00;11.80;;;6.00;;
7729;SDS011;3908;52.310;7.230;2023-03-12T02:00:48;11.67;;;5.80;;
7729;SDS011;3908;52.310;7.230;2023-03-12T02:03:36;12.27;;;7.03;;
7729;SDS011;3908;52.310;7.230;2023-03-12T02:06:24;9.73;;;6.17;;
7729;SDS011;3908;52.310;7.230;2023-03-12T02:09:12;6.73;;;5.60;;
7729;SDS011;3908;52.310;7.230;2023-03-12T02:11:59;7.93;;;5.67;;
7729;SDS011;3908;52.310;7.230;2023-03-12T02:14:46;10.00;;;6.13;;
7729;SDS011;3908;52.310;7.230;2023-03-12T02:17:34;9.63;;;6.07;;
7729;SDS011;3908;52.310;7.230;2023-03-12T02:20:23;8.13;;;6.00;;
7729;SDS011;3908;52.310;7.230;2023-03-12T02:23:16;9.67;;;6.00;;
7729;SDS011;3908;52.310;7.230;2023-03-12T02:26:05;11.93;;;7.20;;
7729;SDS011;3908;52.310;7.230;2023-03-12T02:28:53;11.00;;;6.07;;
7729;SDS011;3908;52.310;7.230;2023-03-12T02:31:41;9.70;;;6.33;;
7729;SDS011;3908;52.310;7.230;2023-03-12T02:34:28;14.33;;;6.40;;
7729;SDS011;3908;52.310;7.230;2023-03-12T02:37:16;8.03;;;6.60;;
7729;SDS011;3908;52.310;7.230;2023-03-12T02:40:03;9.20;;;5.93;;
7729;SDS011;3908;52.310;7.230;2023-03-12T02:42:52;10.73;;;6.67;;
7729;SDS011;3908;52.310;7.230;2023-03-12T02:45:39;7.73;;;5.67;;
7729;SDS011;3908;52.310;7.230;2023-03-12T02:48:26;9.97;;;5.60;;
7729;SDS011;3908;52.310;7.230;2023-03-12T02:51:13;9.73;;;5.47;;
7729;SDS011;3908;52.310;7.230;2023-03-12T02:53:59;9.03;;;5.77;;
7729;SDS011;3908;52.310;7.230;2023-03-12T02:56:47;8.03;;;6.13;;
7729;SDS011;3908;52.310;7.230;2023-03-12T02:59:35;8.13;;;5.90;;
7729;SDS011;3908;52.310;7.230;2023-03-12T03:02:22;8.47;;;6.23;;
7729;SDS011;3908;52.310;7.230;2023-03-12T03:05:09;9.40;;;6.57;;
7729;SDS011;3908;52.310;7.230;2023-03-12T03:07:56;9.73;;;5.70;;
7729;SDS011;3908;52.310;7.230;2023-03-12T03:10:43;9.47;;;6.13;;
7729;SDS011;3908;52.310;7.230;2023-03-12T03:13:30;12.20;;;5.93;;
7729;SDS011;3908;52.310;7.230;2023-03-12T03:16:19;11.70;;;6.10;;
7729;SDS011;3908;52.310;7.230;2023-03-12T03:19:05;10.33;;;5.40;;
7729;SDS011;3908;52.310;7.230;2023-03-12T03:21:52;10.43;;;6.10;;
7729;SDS011;3908;52.310;7.230;2023-03-12T03:24:39;8.77;;;5.53;;
7729;SDS011;3908;52.310;7.230;2023-03-12T03:27:26;11.80;;;5.97;;
7729;SDS011;3908;52.310;7.230;2023-03-12T03:30:13;9.63;;;5.97;;
7729;SDS011;3908;52.310;7.230;2023-03-12T03:33:02;8.47;;;5.30;;
7729;SDS011;3908;52.310;7.230;2023-03-12T03:35:49;10.27;;;5.57;;
7729;SDS011;3908;52.310;7.230;2023-03-12T03:38:36;9.57;;;5.40;;
7729;SDS011;3908;52.310;7.230;2023-03-12T03:41:22;10.17;;;5.30;;
7729;SDS011;3908;52.310;7.230;2023-03-12T03:44:10;7.33;;;5.20;;
7729;SDS011;3908;52.310;7.230;2023-03-12T03:46:57;9.87;;;5.83;;
7729;SDS011;3908;52.310;7.230;2023-03-12T03:49:45;12.03;;;6.03;;
7729;SDS011;3908;52.310;7.230;2023-03-12T03:52:32;10.20;;;6.10;;
7729;SDS011;3908;52.310;7.230;2023-03-12T03:55:19;8.53;;;5.50;;
7729;SDS011;3908;52.310;7.230;2023-03-12T03:58:06;10.77;;;6.40;;
7729;SDS011;3908;52.310;7.230;2023-03-12T04:00:53;9.03;;;6.10;;
7729;SDS011;3908;52.310;7.230;2023-03-12T04:03:39;12.67;;;7.17;;
7729;SDS011;3908;52.310;7.230;2023-03-12T04:06:28;7.77;;;5.70;;
7729;SDS011;3908;52.310;7.230;2023-03-12T04:09:15;8.63;;;5.97;;
7729;SDS011;3908;52.310;7.230;2023-03-12T04:12:02;8.23;;;6.27;;
7729;SDS011;3908;52.310;7.230;2023-03-12T04:14:48;9.13;;;5.93;;
7729;SDS011;3908;52.310;7.230;2023-03-12T04:17:35;8.87;;;7.07;;
7729;SDS011;3908;52.310;7.230;2023-03-12T04:20:22;10.17;;;6.20;;
7729;SDS011;3908;52.310;7.230;2023-03-12T04:23:10;8.50;;;5.90;;
7729;SDS011;3908;52.310;7.230;2023-03-12T04:25:57;10.00;;;5.50;;
7729;SDS011;3908;52.310;7.230;2023-03-12T04:28:44;7.43;;;5.77;;
7729;SDS011;3908;52.310;7.230;2023-03-12T04:31:30;11.00;;;6.37;;
7729;SDS011;3908;52.310;7.230;2023-03-12T04:34:17;10.53;;;6.27;;
7729;SDS011;3908;52.310;7.230;2023-03-12T04:37:04;9.67;;;6.80;;
7729;SDS011;3908;52.310;7.230;2023-03-12T04:39:52;8.77;;;6.37;;
7729;SDS011;3908;52.310;7.230;2023-03-12T04:42:39;9.60;;;5.97;;
7729;SDS011;3908;52.310;7.230;2023-03-12T04:45:26;6.27;;;5.63;;
7729;SDS011;3908;52.310;7.230;2023-03-12T04:48:13;8.90;;;6.90;;
7729;SDS011;3908;52.310;7.230;2023-03-12T04:51:00;8.50;;;6.07;;
7729;SDS011;3908;52.310;7.230;2023-03-12T04:53:47;14.30;;;6.73;;
7729;SDS011;3908;52.310;7.230;2023-03-12T04:56:35;11.37;;;6.50;;
7729;SDS011;3908;52.310;7.230;2023-03-12T04:59:22;9.53;;;6.73;;
7729;SDS011;3908;52.310;7.230;2023-03-12T05:02:08;7.83;;;6.53;;
7729;SDS011;3908;52.310;7.230;2023-03-12T05:04:55;11.60;;;6.83;;
7729;SDS011;3908;52.310;7.230;2023-03-12T05:07:42;10.23;;;6.70;;
7729;SDS011;3908;52.310;7.230;2023-03-12T05:10:29;10.03;;;7.03;;
7729;SDS011;3908;52.310;7.230;2023-03-12T05:13:18;10.17;;;6.20;;
7729;SDS011;3908;52.310;7.230;2023-03-12T05:16:06;11.23;;;6.60;;
7729;SDS011;3908;52.310;7.230;2023-03-12T05:18:53;9.73;;;6.20;;
7729;SDS011;3908;52.310;7.230;2023-03-12T05:21:40;7.77;;;6.67;;
7729;SDS011;3908;52.310;7.230;2023-03-12T05:24:27;10.17;;;6.17;;
7729;SDS011;3908;52.310;7.230;2023-03-12T05:27:13;11.13;;;6.10;;
7729;SDS011;3908;52.310;7.230;2023-03-12T05:30:02;11.47;;;6.60;;
7729;SDS011;3908;52.310;7.230;2023-03-12T05:32:49;7.97;;;5.43;;
7729;SDS011;3908;52.310;7.230;2023-03-12T05:35:35;9.40;;;7.07;;
7729;SDS011;3908;52.310;7.230;2023-03-12T05:38:22;8.67;;;5.97;;
7729;SDS011;3908;52.310;7.230;2023-03-12T05:41:09;11.20;;;5.90;;
7729;SDS011;3908;52.310;7.230;2023-03-12T05:44:02;7.80;;;6.00;;
7729;SDS011;3908;52.310;7.230;2023-03-12T05:46:51;8.43;;;6.33;;
7729;SDS011;3908;52.310;7.230;2023-03-12T05:49:38;10.23;;;6.10;;
7729;SDS011;3908;52.310;7.230;2023-03-12T05:52:25;9.83;;;5.63;;
7729;SDS011;3908;52.310;7.230;2023-03-12T05:55:11;12.00;;;5.87;;
7729;SDS011;3908;52.310;7.230;2023-03-12T05:57:58;8.13;;;6.17;;
7729;SDS011;3908;52.310;7.230;2023-03-12T06:00:45;7.37;;;4.83;;
7729;SDS011;3908;52.310;7.230;2023-03-12T06:03:33;8.17;;;5.00;;
7729;SDS011;3908;52.310;7.230;2023-03-12T06:06:20;6.40;;;5.40;;
7729;SDS011;3908;52.310;7.230;2023-03-12T06:09:07;7.37;;;5.20;;
7729;SDS011;3908;52.310;7.230;2023-03-12T06:11:54;8.87;;;5.33;;
7729;SDS011;3908;52.310;7.230;2023-03-12T06:14:41;6.80;;;5.60;;
7729;SDS011;3908;52.310;7.230;2023-03-12T06:17:28;7.83;;;4.90;;
7729;SDS011;3908;52.310;7.230;2023-03-12T06:20:17;8.70;;;6.07;;
7729;SDS011;3908;52.310;7.230;2023-03-12T06:23:04;7.67;;;5.77;;
7729;SDS011;3908;52.310;7.230;2023-03-12T06:25:51;8.00;;;5.30;;
7729;SDS011;3908;52.310;7.230;2023-03-12T06:28:38;7.33;;;5.23;;
7729;SDS011;3908;52.310;7.230;2023-03-12T06:31:25;10.33;;;5.37;;
7729;SDS011;3908;52.310;7.230;2023-03-12T06:34:11;7.90;;;5.17;;
7729;SDS011;3908;52.310;7.230;2023-03-12T06:37:00;11.47;;;4.67;;
7729;SDS011;3908;52.310;7.230;2023-03-12T06:39:47;7.63;;;5.03;;
7729;SDS011;3908;52.310;7.230;2023-03-12T06:42:33;11.57;;;5.93;;
7729;SDS011;3908;52.310;7.230;2023-03-12T06:45:20;8.90;;;5.00;;
7729;SDS011;3908;52.310;7.230;2023-03-12T06:48:07;8.10;;;4.83;;
7729;SDS011;3908;52.310;7.230;2023-03-12T06:50:54;9.23;;;4.87;;
7729;SDS011;3908;52.310;7.230;2023-03-12T06:53:42;9.50;;;4.73;;
7729;SDS011;3908;52.310;7.230;2023-03-12T06:56:29;13.27;;;4.97;;
7729;SDS011;3908;52.310;7.230;2023-03-12T06:59:16;6.27;;;4.80;;
7729;SDS011;3908;52.310;7.230;2023-03-12T07:02:06;12.80;;;5.10;;
7729;SDS011;3908;52.310;7.230;2023-03-12T07:04:52;7.00;;;4.80;;
7729;SDS011;3908;52.310;7.230;2023-03-12T07:07:39;7.50;;;4.50;;
7729;SDS011;3908;52.310;7.230;2023-03-12T07:10:28;8.40;;;5.10;;
7729;SDS011;3908;52.310;7.230;2023-03-12T07:13:14;9.83;;;4.77;;
7729;SDS011;3908;52.310;7.230;2023-03-12T07:16:01;10.83;;;4.73;;
7729;SDS011;3908;52.310;7.230;2023-03-12T07:18:48;9.77;;;5.20;;
7729;SDS011;3908;52.310;7.230;2023-03-12T07:21:35;8.10;;;4.43;;
7729;SDS011;3908;52.310;7.230;2023-03-12T07:24:22;11.57;;;5.27;;
7729;SDS011;3908;52.310;7.230;2023-03-12T07:27:10;7.20;;;4.70;;
7729;SDS011;3908;52.310;7.230;2023-03-12T07:29:57;5.03;;;4.20;;
7729;SDS011;3908;52.310;7.230;2023-03-12T07:32:43;9.63;;;4.63;;
7729;SDS011;3908;52.310;7.230;2023-03-12T07:35:30;8.50;;;4.73;;
7729;SDS011;3908;52.310;7.230;2023-03-12T07:38:17;10.93;;;4.60;;
7729;SDS011;3908;52.310;7.230;2023-03-12T07:41:04;8.87;;;4.50;;
7729;SDS011;3908;52.310;7.230;2023-03-12T07:43:52;6.03;;;4.67;;
7729;SDS011;3908;52.310;7.230;2023-03-12T07:46:39;8.40;;;4.43;;
7729;SDS011;3908;52.310;7.230;2023-03-12T07:49:26;10.33;;;4.73;;
7729;SDS011;3908;52.310;7.230;2023-03-12T07:52:13;7.53;;;4.43;;
7729;SDS011;3908;52.310;7.230;2023-03-12T07:54:59;5.50;;;4.20;;
7729;SDS011;3908;52.310;7.230;2023-03-12T07:57:46;9.60;;;4.10;;
7729;SDS011;3908;52.310;7.230;2023-03-12T08:00:34;6.93;;;4.30;;
7729;SDS011;3908;52.310;7.230;2023-03-12T08:03:21;11.40;;;4.43;;
7729;SDS011;3908;52.310;7.230;2023-03-12T08:06:08;8.07;;;4.33;;
7729;SDS011;3908;52.310;7.230;2023-03-12T08:08:55;10.00;;;3.90;;
7729;SDS011;3908;52.310;7.230;2023-03-12T08:11:42;6.80;;;3.70;;
7729;SDS011;3908;52.310;7.230;2023-03-12T08:14:28;8.57;;;4.07;;
7729;SDS011;3908;52.310;7.230;2023-03-12T08:17:17;6.93;;;3.70;;
7729;SDS011;3908;52.310;7.230;2023-03-12T08:20:05;6.80;;;3.67;;
7729;SDS011;3908;52.310;7.230;2023-03-12T08:22:54;6.77;;;3.80;;
7729;SDS011;3908;52.310;7.230;2023-03-12T08:25:40;5.90;;;4.27;;
7729;SDS011;3908;52.310;7.230;2023-03-12T08:28:30;6.37;;;4.23;;
7729;SDS011;3908;52.310;7.230;2023-03-12T08:31:16;6.13;;;4.07;;
7729;SDS011;3908;52.310;7.230;2023-03-12T08:34:05;7.80;;;4.00;;
7729;SDS011;3908;52.310;7.230;2023-03-12T08:36:51;9.03;;;4.60;;
7729;SDS011;3908;52.310;7.230;2023-03-12T08:39:38;7.67;;;4.17;;
7729;SDS011;3908;52.310;7.230;2023-03-12T08:42:25;8.47;;;4.07;;
7729;SDS011;3908;52.310;7.230;2023-03-12T08:45:12;6.73;;;4.23;;
7729;SDS011;3908;52.310;7.230;2023-03-12T08:48:00;4.80;;;4.07;;
7729;SDS011;3908;52.310;7.230;2023-03-12T08:50:48;5.33;;;4.20;;
7729;SDS011;3908;52.310;7.230;2023-03-12T08:53:35;8.10;;;4.40;;
7729;SDS011;3908;52.310;7.230;2023-03-12T08:56:22;5.03;;;4.13;;
7729;SDS011;3908;52.310;7.230;2023-03-12T08:59:09;7.23;;;4.37;;
7729;SDS011;3908;52.310;7.230;2023-03-12T09:01:56;8.70;;;3.83;;
7729;SDS011;3908;52.310;7.230;2023-03-12T09:04:46;7.63;;;4.43;;
7729;SDS011;3908;52.310;7.230;2023-03-12T09:07:35;15.93;;;4.33;;
7729;SDS011;3908;52.310;7.230;2023-03-12T09:10:22;10.23;;;4.67;;
7729;SDS011;3908;52.310;7.230;2023-03-12T09:13:09;7.50;;;4.60;;
7729;SDS011;3908;52.310;7.230;2023-03-12T09:15:59;9.63;;;4.10;;
7729;SDS011;3908;52.310;7.230;2023-03-12T09:18:46;7.00;;;3.93;;
7729;SDS011;3908;52.310;7.230;2023-03-12T09:21:33;7.73;;;3.80;;
7729;SDS011;3908;52.310;7.230;2023-03-12T09:24:22;10.80;;;4.43;;
7729;SDS011;3908;52.310;7.230;2023-03-12T09:27:09;5.87;;;3.73;;
7729;SDS011;3908;52.310;7.230;2023-03-12T09:29:56;10.80;;;4.40;;
7729;SDS011;3908;52.310;7.230;2023-03-12T09:32:42;4.30;;;3.90;;
7729;SDS011;3908;52.310;7.230;2023-03-12T09:35:30;5.80;;;4.00;;
7729;SDS011;3908;52.310;7.230;2023-03-12T09:38:17;6.30;;;3.90;;
7729;SDS011;3908;52.310;7.230;2023-03-12T09:41:11;4.77;;;3.70;;
7729;SDS011;3908;52.310;7.230;2023-03-12T09:44:06;4.83;;;4.07;;
7729;SDS011;3908;52.310;7.230;2023-03-12T09:46:57;7.43;;;4.83;;
7729;SDS011;3908;52.310;7.230;2023-03-12T09:49:45;9.20;;;4.57;;
7729;SDS011;3908;52.310;7.230;2023-03-12T09:52:35;10.07;;;5.30;;
7729;SDS011;3908;52.310;7.230;2023-03-12T09:55:26;10.87;;;4.47;;
7729;SDS011;3908;52.310;7.230;2023-03-12T09:58:16;10.87;;;4.93;;
7729;SDS011;3908;52.310;7.230;2023-03-12T10:01:08;11.20;;;4.67;;
7729;SDS011;3908;52.310;7.230;2023-03-12T10:07:14;11.93;;;4.57;;
7729;SDS011;3908;52.310;7.230;2023-03-12T10:10:05;7.87;;;4.87;;
7729;SDS011;3908;52.310;7.230;2023-03-12T10:13:06;7.83;;;4.90;;
7729;SDS011;3908;52.310;7.230;2023-03-12T10:16:03;9.03;;;5.17;;
7729;SDS011;3908;52.310;7.230;2023-03-12T10:18:57;6.33;;;5.27;;
7729;SDS011;3908;52.310;7.230;2023-03-12T10:21:50;8.20;;;5.20;;
7729;SDS011;3908;52.310;7.230;2023-03-12T10:24:44;10.43;;;5.60;;
7729;SDS011;3908;52.310;7.230;2023-03-12T10:27:34;10.10;;;5.80;;
7729;SDS011;3908;52.310;7.230;2023-03-12T10:30:23;6.27;;;5.47;;
7729;SDS011;3908;52.310;7.230;2023-03-12T10:33:12;10.13;;;6.07;;
7729;SDS011;3908;52.310;7.230;2023-03-12T10:36:02;8.73;;;6.53;;
7729;SDS011;3908;52.310;7.230;2023-03-12T10:38:52;9.67;;;6.87;;
7729;SDS011;3908;52.310;7.230;2023-03-12T10:41:40;13.20;;;7.20;;
7729;SDS011;3908;52.310;7.230;2023-03-12T10:44:27;10.33;;;7.30;;
7729;SDS011;3908;52.310;7.230;2023-03-12T10:47:24;12.90;;;7.27;;
7729;SDS011;3908;52.310;7.230;2023-03-12T10:50:15;13.83;;;7.87;;
7729;SDS011;3908;52.310;7.230;2023-03-12T10:53:11;11.50;;;8.07;;
7729;SDS011;3908;52.310;7.230;2023-03-12T10:55:59;12.47;;;8.73;;
7729;SDS011;3908;52.310;7.230;2023-03-12T10:58:47;13.20;;;8.70;;
7729;SDS011;3908;52.310;7.230;2023-03-12T11:01:34;12.70;;;9.23;;
7729;SDS011;3908;52.310;7.230;2023-03-12T11:04:23;15.00;;;9.43;;
7729;SDS011;3908;52.310;7.230;2023-03-12T11:07:20;12.23;;;9.77;;
7729;SDS011;3908;52.310;7.230;2023-03-12T11:10:13;16.13;;;9.67;;
7729;SDS011;3908;52.310;7.230;2023-03-12T11:13:00;13.57;;;10.17;;
7729;SDS011;3908;52.310;7.230;2023-03-12T11:15:48;16.43;;;10.13;;
7729;SDS011;3908;52.310;7.230;2023-03-12T11:18:35;13.57;;;10.03;;
7729;SDS011;3908;52.310;7.230;2023-03-12T11:21:22;14.93;;;11.03;;
7729;SDS011;3908;52.310;7.230;2023-03-12T11:24:11;13.63;;;10.00;;
7729;SDS011;3908;52.310;7.230;2023-03-12T11:26:58;13.40;;;10.87;;
7729;SDS011;3908;52.310;7.230;2023-03-12T11:29:48;14.53;;;10.20;;
7729;SDS011;3908;52.310;7.230;2023-03-12T11:32:36;15.13;;;10.10;;
7729;SDS011;3908;52.310;7.230;2023-03-12T11:35:27;14.47;;;10.40;;
7729;SDS011;3908;52.310;7.230;2023-03-12T11:38:18;15.97;;;10.87;;
7729;SDS011;3908;52.310;7.230;2023-03-12T11:41:12;13.33;;;9.70;;
7729;SDS011;3908;52.310;7.230;2023-03-12T11:44:05;17.63;;;9.50;;
7729;SDS011;3908;52.310;7.230;2023-03-12T11:47:05;12.63;;;9.27;;
7729;SDS011;3908;52.310;7.230;2023-03-12T11:50:07;10.83;;;9.13;;
7729;SDS011;3908;52.310;7.230;2023-03-12T11:53:02;14.13;;;9.67;;
7729;SDS011;3908;52.310;7.230;2023-03-12T11:55:53;12.43;;;9.20;;
7729;SDS011;3908;52.310;7.230;2023-03-12T11:58:49;14.80;;;9.80;;
7729;SDS011;3908;52.310;7.230;2023-03-12T12:01:43;12.00;;;8.97;;
7729;SDS011;3908;52.310;7.230;2023-03-12T12:04:37;12.73;;;9.10;;
7729;SDS011;3908;52.310;7.230;2023-03-12T12:07:34;15.83;;;10.43;;
7729;SDS011;3908;52.310;7.230;2023-03-12T12:10:26;15.13;;;9.00;;
7729;SDS011;3908;52.310;7.230;2023-03-12T12:13:15;10.93;;;7.93;;
7729;SDS011;3908;52.310;7.230;2023-03-12T12:16:12;16.17;;;9.53;;
7729;SDS011;3908;52.310;7.230;2023-03-12T12:19:06;14.27;;;8.87;;
7729;SDS011;3908;52.310;7.230;2023-03-12T12:22:00;13.30;;;8.67;;
7729;SDS011;3908;52.310;7.230;2023-03-12T12:24:53;16.63;;;8.77;;
7729;SDS011;3908;52.310;7.230;2023-03-12T12:27:43;14.83;;;8.67;;
7729;SDS011;3908;52.310;7.230;2023-03-12T12:30:39;15.40;;;8.77;;
7729;SDS011;3908;52.310;7.230;2023-03-12T12:33:36;16.37;;;9.07;;
7729;SDS011;3908;52.310;7.230;2023-03-12T12:36:25;14.93;;;9.07;;
7729;SDS011;3908;52.310;7.230;2023-03-12T12:39:14;12.70;;;8.90;;
7729;SDS011;3908;52.310;7.230;2023-03-12T12:42:03;16.10;;;9.63;;
7729;SDS011;3908;52.310;7.230;2023-03-12T12:44:51;14.10;;;9.20;;
7729;SDS011;3908;52.310;7.230;2023-03-12T12:47:39;16.30;;;8.97;;
7729;SDS011;3908;52.310;7.230;2023-03-12T12:50:31;17.23;;;10.37;;
7729;SDS011;3908;52.310;7.230;2023-03-12T12:53:20;14.87;;;10.13;;
7729;SDS011;3908;52.310;7.230;2023-03-12T12:56:09;19.80;;;11.17;;
7729;SDS011;3908;52.310;7.230;2023-03-12T12:59:04;18.17;;;10.23;;
7729;SDS011;3908;52.310;7.230;2023-03-12T13:01:53;18.83;;;10.40;;
7729;SDS011;3908;52.310;7.230;2023-03-12T13:04:40;19.60;;;11.70;;
7729;SDS011;3908;52.310;7.230;2023-03-12T13:07:31;21.03;;;11.73;;
7729;SDS011;3908;52.310;7.230;2023-03-12T13:10:39;23.87;;;11.73;;
7729;SDS011;3908;52.310;7.230;2023-03-12T13:13:30;16.77;;;10.67;;
7729;SDS011;3908;52.310;7.230;2023-03-12T13:16:26;20.50;;;10.67;;
7729;SDS011;3908;52.310;7.230;2023-03-12T13:19:22;19.60;;;11.93;;
7729;SDS011;3908;52.310;7.230;2023-03-12T13:22:11;20.87;;;12.43;;
7729;SDS011;3908;52.310;7.230;2023-03-12T13:25:06;24.43;;;13.00;;
7729;SDS011;3908;52.310;7.230;2023-03-12T13:27:56;21.57;;;13.00;;
7729;SDS011;3908;52.310;7.230;2023-03-12T13:30:44;25.73;;;13.23;;
7729;SDS011;3908;52.310;7.230;2023-03-12T13:33:41;26.77;;;13.77;;
7729;SDS011;3908;52.310;7.230;2023-03-12T13:36:29;27.43;;;14.00;;
7729;SDS011;3908;52.310;7.230;2023-03-12T13:39:20;27.60;;;14.60;;
7729;SDS011;3908;52.310;7.230;2023-03-12T13:42:34;26.80;;;13.80;;
7729;SDS011;3908;52.310;7.230;2023-03-12T13:45:25;23.33;;;13.20;;
7729;SDS011;3908;52.310;7.230;2023-03-12T13:48:13;24.83;;;14.03;;
7729;SDS011;3908;52.310;7.230;2023-03-12T13:51:01;29.57;;;16.07;;
7729;SDS011;3908;52.310;7.230;2023-03-12T13:53:57;33.03;;;14.70;;
7729;SDS011;3908;52.310;7.230;2023-03-12T13:56:45;28.60;;;14.97;;
7729;SDS011;3908;52.310;7.230;2023-03-12T13:59:34;28.30;;;13.70;;
7729;SDS011;3908;52.310;7.230;2023-03-12T14:02:24;24.77;;;14.87;;
7729;SDS011;3908;52.310;7.230;2023-03-12T14:05:12;27.23;;;14.87;;
7729;SDS011;3908;52.310;7.230;2023-03-12T14:11:05;30.70;;;14.30;;
7729;SDS011;3908;52.310;7.230;2023-03-12T14:14:03;28.43;;;14.60;;
7729;SDS011;3908;52.310;7.230;2023-03-12T14:16:55;29.63;;;14.13;;
7729;SDS011;3908;52.310;7.230;2023-03-12T14:19:44;25.53;;;14.33;;
7729;SDS011;3908;52.310;7.230;2023-03-12T14:22:32;28.57;;;14.20;;
7729;SDS011;3908;52.310;7.230;2023-03-12T14:25:22;26.17;;;12.87;;
7729;SDS011;3908;52.310;7.230;2023-03-12T14:28:12;28.37;;;13.00;;
7729;SDS011;3908;52.310;7.230;2023-03-12T14:31:03;27.07;;;16.60;;
7729;SDS011;3908;52.310;7.230;2023-03-12T14:33:53;23.27;;;13.13;;
7729;SDS011;3908;52.310;7.230;2023-03-12T14:36:41;23.27;;;12.63;;
7729;SDS011;3908;52.310;7.230;2023-03-12T14:39:31;27.37;;;14.57;;
7729;SDS011;3908;52.310;7.230;2023-03-12T14:42:19;25.87;;;13.57;;
7729;SDS011;3908;52.310;7.230;2023-03-12T14:45:11;22.77;;;12.97;;
7729;SDS011;3908;52.310;7.230;2023-03-12T14:47:58;22.73;;;11.30;;
7729;SDS011;3908;52.310;7.230;2023-03-12T14:50:47;19.03;;;10.27;;
7729;SDS011;3908;52.310;7.230;2023-03-12T14:53:34;23.03;;;10.03;;
7729;SDS011;3908;52.310;7.230;2023-03-12T14:56:23;20.87;;;10.37;;
7729;SDS011;3908;52.310;7.230;2023-03-12T14:59:20;24.73;;;10.60;;
7729;SDS011;3908;52.310;7.230;2023-03-12T15:02:10;22.00;;;10.70;;
7729;SDS011;3908;52.310;7.230;2023-03-12T15:04:58;29.60;;;12.23;;
7729;SDS011;3908;52.310;7.230;2023-03-12T15:07:47;28.17;;;13.27;;
7729;SDS011;3908;52.310;7.230;2023-03-12T15:10:34;24.33;;;12.20;;
7729;SDS011;3908;52.310;7.230;2023-03-12T15:13:22;26.80;;;12.87;;
7729;SDS011;3908;52.310;7.230;2023-03-12T15:16:10;22.83;;;12.17;;
7729;SDS011;3908;52.310;7.230;2023-03-12T15:18:57;24.00;;;11.83;;
7729;SDS011;3908;52.310;7.230;2023-03-12T15:21:44;28.53;;;11.17;;
7729;SDS011;3908;52.310;7.230;2023-03-12T15:24:36;31.30;;;10.97;;
7729;SDS011;3908;52.310;7.230;2023-03-12T15:27:30;31.67;;;10.13;;
7729;SDS011;3908;52.310;7.230;2023-03-12T15:33:35;35.00;;;9.30;;
7729;SDS011;3908;52.310;7.230;2023-03-12T15:36:23;25.77;;;8.13;;
7729;SDS011;3908;52.310;7.230;2023-03-12T15:39:12;35.83;;;10.23;;
7729;SDS011;3908;52.310;7.230;2023-03-12T15:42:07;32.37;;;8.97;;
7729;SDS011;3908;52.310;7.230;2023-03-12T15:44:55;31.60;;;9.47;;
7729;SDS011;3908;52.310;7.230;2023-03-12T15:47:50;30.77;;;8.97;;
7729;SDS011;3908;52.310;7.230;2023-03-12T15:50:40;24.37;;;8.67;;
7729;SDS011;3908;52.310;7.230;2023-03-12T15:53:30;30.37;;;9.13;;
7729;SDS011;3908;52.310;7.230;2023-03-12T15:56:20;38.73;;;8.40;;
7729;SDS011;3908;52.310;7.230;2023-03-12T15:59:21;31.23;;;8.30;;
7729;SDS011;3908;52.310;7.230;2023-03-12T16:02:12;26.20;;;8.10;;
7729;SDS011;3908;52.310;7.230;2023-03-12T16:05:02;32.97;;;7.97;;
7729;SDS011;3908;52.310;7.230;2023-03-12T16:07:53;27.50;;;7.67;;
7729;SDS011;3908;52.310;7.230;2023-03-12T16:10:42;30.20;;;7.17;;
7729;SDS011;3908;52.310;7.230;2023-03-12T16:13:30;30.40;;;8.33;;
7729;SDS011;3908;52.310;7.230;2023-03-12T16:16:20;33.27;;;7.57;;
7729;SDS011;3908;52.310;7.230;2023-03-12T16:19:09;25.80;;;6.70;;
7729;SDS011;3908;52.310;7.230;2023-03-12T16:21:57;31.47;;;8.37;;
7729;SDS011;3908;52.310;7.230;2023-03-12T16:24:45;26.17;;;6.17;;
7729;SDS011;3908;52.310;7.230;2023-03-12T16:27:36;37.80;;;7.27;;
7729;SDS011;3908;52.310;7.230;2023-03-12T16:30:29;20.87;;;5.77;;
7729;SDS011;3908;52.310;7.230;2023-03-12T16:33:19;27.80;;;6.33;;
7729;SDS011;3908;52.310;7.230;2023-03-12T16:36:16;24.87;;;7.30;;
7729;SDS011;3908;52.310;7.230;2023-03-12T16:39:23;23.00;;;4.90;;
7729;SDS011;3908;52.310;7.230;2023-03-12T16:42:15;30.63;;;5.73;;
7729;SDS011;3908;52.310;7.230;2023-03-12T16:45:24;17.73;;;4.67;;
7729;SDS011;3908;52.310;7.230;2023-03-12T16:48:20;24.93;;;5.80;;
7729;SDS011;3908;52.310;7.230;2023-03-12T16:51:12;29.37;;;4.90;;
7729;SDS011;3908;52.310;7.230;2023-03-12T16:54:00;33.90;;;6.27;;
7729;SDS011;3908;52.310;7.230;2023-03-12T16:56:47;22.23;;;4.70;;
7729;SDS011;3908;52.310;7.230;2023-03-12T16:59:36;20.43;;;5.17;;
7729;SDS011;3908;52.310;7.230;2023-03-12T17:02:23;25.47;;;5.00;;
7729;SDS011;3908;52.310;7.230;2023-03-12T17:05:12;21.10;;;5.17;;
7729;SDS011;3908;52.310;7.230;2023-03-12T17:08:00;25.53;;;4.90;;
7729;SDS011;3908;52.310;7.230;2023-03-12T17:10:47;20.73;;;6.07;;
7729;SDS011;3908;52.310;7.230;2023-03-12T17:13:34;19.37;;;4.10;;
7729;SDS011;3908;52.310;7.230;2023-03-12T17:16:21;25.40;;;5.27;;
7729;SDS011;3908;52.310;7.230;2023-03-12T17:19:08;35.90;;;8.07;;
7729;SDS011;3908;52.310;7.230;2023-03-12T17:21:57;30.67;;;11.87;;
7729;SDS011;3908;52.310;7.230;2023-03-12T17:24:43;29.73;;;7.53;;
7729;SDS011;3908;52.310;7.230;2023-03-12T17:27:31;22.07;;;5.67;;